sensor_id;sensor_type;location;lat;lon;timestamp;P1;durP1;ratioP1;P2;durP2;ratioP2
20181;SDS011;10250;50.756;6.172;2023-06-26T00:01:22;15.47;;;4.80;;
20181;SDS011;10250;50.756;6.172;2023-06-26T00:03:23;13.20;;;4.47;;
20181;SDS011;10250;50.756;6.172;2023-06-26T00:05:23;13.43;;;4.77;;
20181;SDS011;10250;50.756;6.172;2023-06-26T00:07:24;14.43;;;4.47;;
20181;SDS011;10250;50.756;6.172;2023-06-26T00:09:25;14.97;;;4.60;;
20181;SDS011;10250;50.756;6.172;2023-06-26T00:11:25;13.60;;;4.80;;
20181;SDS011;10250;50.756;6.172;2023-06-26T00:13:27;12.50;;;4.23;;
20181;SDS011;10250;50.756;6.172;2023-06-26T00:15:28;12.87;;;4.30;;
20181;SDS011;10250;50.756;6.172;2023-06-26T00:17:31;14.00;;;4.57;;
20181;SDS011;10250;50.756;6.172;2023-06-26T00:19:36;12.03;;;4.03;;
20181;SDS011;10250;50.756;6.172;2023-06-26T00:21:37;13.77;;;4.40;;
20181;SDS011;10250;50.756;6.172;2023-06-26T00:23:37;13.57;;;4.67;;
20181;SDS011;10250;50.756;6.172;2023-06-26T00:25:38;12.40;;;4.10;;
20181;SDS011;10250;50.756;6.172;2023-06-26T00:27:39;12.97;;;4.30;;
20181;SDS011;10250;50.756;6.172;2023-06-26T00:29:39;16.10;;;4.10;;
20181;SDS011;10250;50.756;6.172;2023-06-26T00:31:40;12.00;;;4.20;;
20181;SDS011;10250;50.756;6.172;2023-06-26T00:33:41;13.77;;;4.27;;
20181;SDS011;10250;50.756;6.172;2023-06-26T00:35:42;12.33;;;4.23;;
20181;SDS011;10250;50.756;6.172;2023-06-26T00:37:42;14.03;;;4.60;;
20181;SDS011;10250;50.756;6.172;2023-06-26T00:39:43;13.43;;;4.40;;
20181;SDS011;10250;50.756;6.172;2023-06-26T00:41:43;13.97;;;4.30;;
20181;SDS011;10250;50.756;6.172;2023-06-26T00:43:44;12.73;;;4.37;;
20181;SDS011;10250;50.756;6.172;2023-06-26T00:45:47;11.67;;;4.00;;
20181;SDS011;10250;50.756;6.172;2023-06-26T00:47:53;13.77;;;4.53;;
20181;SDS011;10250;50.756;6.172;2023-06-26T00:49:55;13.77;;;4.30;;
20181;SDS011;10250;50.756;6.172;2023-06-26T00:51:56;12.47;;;4.30;;
20181;SDS011;10250;50.756;6.172;2023-06-26T00:53:57;12.63;;;4.30;;
20181;SDS011;10250;50.756;6.172;2023-06-26T00:55:58;12.70;;;4.57;;
20181;SDS011;10250;50.756;6.172;2023-06-26T00:57:59;12.60;;;4.23;;
20181;SDS011;10250;50.756;6.172;2023-06-26T01:00:10;11.43;;;3.87;;
20181;SDS011;10250;50.756;6.172;2023-06-26T01:02:10;12.30;;;3.83;;
20181;SDS011;10250;50.756;6.172;2023-06-26T01:04:12;13.40;;;4.50;;
20181;SDS011;10250;50.756;6.172;2023-06-26T01:06:18;12.30;;;4.30;;
20181;SDS011;10250;50.756;6.172;2023-06-26T01:08:23;12.73;;;4.30;;
20181;SDS011;10250;50.756;6.172;2023-06-26T01:10:24;12.20;;;4.40;;
20181;SDS011;10250;50.756;6.172;2023-06-26T01:12:27;13.20;;;4.10;;
20181;SDS011;10250;50.756;6.172;2023-06-26T01:14:28;13.53;;;4.27;;
20181;SDS011;10250;50.756;6.172;2023-06-26T01:16:28;13.30;;;4.70;;
20181;SDS011;10250;50.756;6.172;2023-06-26T01:18:30;12.93;;;4.10;;
20181;SDS011;10250;50.756;6.172;2023-06-26T01:20:32;13.67;;;4.37;;
20181;SDS011;10250;50.756;6.172;2023-06-26T01:25:15;11.73;;;4.27;;
20181;SDS011;10250;50.756;6.172;2023-06-26T01:27:18;15.67;;;4.67;;
20181;SDS011;10250;50.756;6.172;2023-06-26T01:29:22;13.13;;;4.40;;
20181;SDS011;10250;50.756;6.172;2023-06-26T01:31:25;13.37;;;4.60;;
20181;SDS011;10250;50.756;6.172;2023-06-26T01:33:27;13.00;;;4.27;;
20181;SDS011;10250;50.756;6.172;2023-06-26T01:35:28;13.87;;;5.03;;
20181;SDS011;10250;50.756;6.172;2023-06-26T01:37:29;14.43;;;5.20;;
20181;SDS011;10250;50.756;6.172;2023-06-26T01:39:29;13.73;;;5.13;;
20181;SDS011;10250;50.756;6.172;2023-06-26T01:41:33;13.13;;;4.53;;
20181;SDS011;10250;50.756;6.172;2023-06-26T01:45:50;12.13;;;4.30;;
20181;SDS011;10250;50.756;6.172;2023-06-26T01:47:52;13.33;;;4.60;;
20181;SDS011;10250;50.756;6.172;2023-06-26T01:50:00;13.87;;;5.00;;
20181;SDS011;10250;50.756;6.172;2023-06-26T01:52:12;14.83;;;4.70;;
20181;SDS011;10250;50.756;6.172;2023-06-26T01:54:21;14.30;;;4.70;;
20181;SDS011;10250;50.756;6.172;2023-06-26T01:56:25;13.77;;;4.70;;
20181;SDS011;10250;50.756;6.172;2023-06-26T01:58:28;13.90;;;4.77;;
20181;SDS011;10250;50.756;6.172;2023-06-26T02:00:29;13.67;;;5.07;;
20181;SDS011;10250;50.756;6.172;2023-06-26T02:02:31;16.73;;;5.07;;
20181;SDS011;10250;50.756;6.172;2023-06-26T02:04:32;14.80;;;4.77;;
20181;SDS011;10250;50.756;6.172;2023-06-26T02:06:33;14.37;;;5.03;;
20181;SDS011;10250;50.756;6.172;2023-06-26T02:08:34;14.57;;;5.03;;
20181;SDS011;10250;50.756;6.172;2023-06-26T02:10:34;14.87;;;5.03;;
20181;SDS011;10250;50.756;6.172;2023-06-26T02:12:35;14.57;;;4.77;;
20181;SDS011;10250;50.756;6.172;2023-06-26T02:14:37;14.03;;;5.00;;
20181;SDS011;10250;50.756;6.172;2023-06-26T02:16:38;13.63;;;4.93;;
20181;SDS011;10250;50.756;6.172;2023-06-26T02:18:38;13.30;;;5.00;;
20181;SDS011;10250;50.756;6.172;2023-06-26T02:20:39;15.53;;;4.80;;
20181;SDS011;10250;50.756;6.172;2023-06-26T02:22:39;21.43;;;5.13;;
20181;SDS011;10250;50.756;6.172;2023-06-26T02:24:40;14.57;;;5.30;;
20181;SDS011;10250;50.756;6.172;2023-06-26T02:26:41;13.47;;;4.80;;
20181;SDS011;10250;50.756;6.172;2023-06-26T02:28:42;14.33;;;5.50;;
20181;SDS011;10250;50.756;6.172;2023-06-26T02:30:42;13.80;;;5.03;;
20181;SDS011;10250;50.756;6.172;2023-06-26T02:32:43;13.50;;;5.10;;
20181;SDS011;10250;50.756;6.172;2023-06-26T02:34:44;15.90;;;5.30;;
20181;SDS011;10250;50.756;6.172;2023-06-26T02:36:44;14.07;;;5.03;;
20181;SDS011;10250;50.756;6.172;2023-06-26T02:38:45;14.90;;;5.57;;
20181;SDS011;10250;50.756;6.172;2023-06-26T02:40:45;14.97;;;5.47;;
20181;SDS011;10250;50.756;6.172;2023-06-26T02:42:46;16.00;;;5.47;;
20181;SDS011;10250;50.756;6.172;2023-06-26T02:44:46;15.83;;;5.33;;
20181;SDS011;10250;50.756;6.172;2023-06-26T02:46:47;15.83;;;6.03;;
20181;SDS011;10250;50.756;6.172;2023-06-26T02:48:47;14.10;;;5.20;;
20181;SDS011;10250;50.756;6.172;2023-06-26T02:50:48;14.87;;;5.43;;
20181;SDS011;10250;50.756;6.172;2023-06-26T02:52:48;17.27;;;5.40;;
20181;SDS011;10250;50.756;6.172;2023-06-26T02:54:52;14.03;;;4.97;;
20181;SDS011;10250;50.756;6.172;2023-06-26T02:56:52;15.03;;;5.73;;
20181;SDS011;10250;50.756;6.172;2023-06-26T02:58:53;15.30;;;5.40;;
20181;SDS011;10250;50.756;6.172;2023-06-26T03:00:54;14.50;;;5.27;;
20181;SDS011;10250;50.756;6.172;2023-06-26T03:02:56;16.40;;;5.23;;
20181;SDS011;10250;50.756;6.172;2023-06-26T03:04:57;16.13;;;5.10;;
20181;SDS011;10250;50.756;6.172;2023-06-26T03:06:57;13.97;;;4.97;;
20181;SDS011;10250;50.756;6.172;2023-06-26T03:08:58;15.57;;;5.33;;
20181;SDS011;10250;50.756;6.172;2023-06-26T03:10:58;14.40;;;5.30;;
20181;SDS011;10250;50.756;6.172;2023-06-26T03:12:59;16.97;;;5.57;;
20181;SDS011;10250;50.756;6.172;2023-06-26T03:14:59;14.33;;;5.40;;
20181;SDS011;10250;50.756;6.172;2023-06-26T03:17:00;14.10;;;5.30;;
20181;SDS011;10250;50.756;6.172;2023-06-26T03:19:03;14.53;;;5.30;;
20181;SDS011;10250;50.756;6.172;2023-06-26T03:21:04;15.37;;;5.53;;
20181;SDS011;10250;50.756;6.172;2023-06-26T03:23:05;17.60;;;5.33;;
20181;SDS011;10250;50.756;6.172;2023-06-26T03:25:05;13.80;;;5.27;;
20181;SDS011;10250;50.756;6.172;2023-06-26T03:27:06;14.50;;;5.57;;
20181;SDS011;10250;50.756;6.172;2023-06-26T03:29:09;15.43;;;5.13;;
20181;SDS011;10250;50.756;6.172;2023-06-26T03:31:10;13.87;;;5.10;;
20181;SDS011;10250;50.756;6.172;2023-06-26T03:33:10;14.70;;;5.37;;
20181;SDS011;10250;50.756;6.172;2023-06-26T03:35:11;12.97;;;4.73;;
20181;SDS011;10250;50.756;6.172;2023-06-26T03:37:12;14.10;;;4.87;;
20181;SDS011;10250;50.756;6.172;2023-06-26T03:39:12;15.43;;;4.87;;
20181;SDS011;10250;50.756;6.172;2023-06-26T03:41:14;14.53;;;4.90;;
20181;SDS011;10250;50.756;6.172;2023-06-26T03:43:15;13.40;;;4.70;;
20181;SDS011;10250;50.756;6.172;2023-06-26T03:45:15;14.47;;;4.93;;
20181;SDS011;10250;50.756;6.172;2023-06-26T03:47:16;14.43;;;4.60;;
20181;SDS011;10250;50.756;6.172;2023-06-26T03:49:16;14.03;;;5.00;;
20181;SDS011;10250;50.756;6.172;2023-06-26T03:51:18;14.93;;;5.03;;
20181;SDS011;10250;50.756;6.172;2023-06-26T03:53:18;21.03;;;4.97;;
20181;SDS011;10250;50.756;6.172;2023-06-26T03:55:19;14.80;;;4.97;;
20181;SDS011;10250;50.756;6.172;2023-06-26T03:57:20;14.47;;;5.00;;
20181;SDS011;10250;50.756;6.172;2023-06-26T03:59:21;16.57;;;4.60;;
20181;SDS011;10250;50.756;6.172;2023-06-26T04:01:22;14.57;;;4.90;;
20181;SDS011;10250;50.756;6.172;2023-06-26T04:03:22;15.33;;;4.97;;
20181;SDS011;10250;50.756;6.172;2023-06-26T04:05:23;14.37;;;4.83;;
20181;SDS011;10250;50.756;6.172;2023-06-26T04:07:24;13.93;;;4.27;;
20181;SDS011;10250;50.756;6.172;2023-06-26T04:09:25;16.20;;;4.20;;
20181;SDS011;10250;50.756;6.172;2023-06-26T04:11:25;11.70;;;4.07;;
20181;SDS011;10250;50.756;6.172;2023-06-26T04:13:26;13.43;;;4.53;;
20181;SDS011;10250;50.756;6.172;2023-06-26T04:15:27;15.03;;;4.57;;
20181;SDS011;10250;50.756;6.172;2023-06-26T04:17:27;13.90;;;4.83;;
20181;SDS011;10250;50.756;6.172;2023-06-26T04:19:29;13.43;;;4.30;;
20181;SDS011;10250;50.756;6.172;2023-06-26T04:21:30;17.03;;;4.60;;
20181;SDS011;10250;50.756;6.172;2023-06-26T04:23:30;14.43;;;5.13;;
20181;SDS011;10250;50.756;6.172;2023-06-26T04:25:31;12.33;;;4.03;;
20181;SDS011;10250;50.756;6.172;2023-06-26T04:27:31;14.90;;;3.83;;
20181;SDS011;10250;50.756;6.172;2023-06-26T04:29:32;14.37;;;4.30;;
20181;SDS011;10250;50.756;6.172;2023-06-26T04:31:33;12.97;;;4.33;;
20181;SDS011;10250;50.756;6.172;2023-06-26T04:33:34;15.47;;;4.03;;
20181;SDS011;10250;50.756;6.172;2023-06-26T04:35:38;13.60;;;4.17;;
20181;SDS011;10250;50.756;6.172;2023-06-26T04:37:39;12.13;;;3.70;;
20181;SDS011;10250;50.756;6.172;2023-06-26T04:39:40;14.13;;;4.13;;
20181;SDS011;10250;50.756;6.172;2023-06-26T04:41:40;13.27;;;3.70;;
20181;SDS011;10250;50.756;6.172;2023-06-26T04:43:41;16.30;;;3.40;;
20181;SDS011;10250;50.756;6.172;2023-06-26T04:45:41;11.93;;;3.63;;
20181;SDS011;10250;50.756;6.172;2023-06-26T04:47:42;12.87;;;3.57;;
20181;SDS011;10250;50.756;6.172;2023-06-26T04:49:43;12.77;;;3.73;;
20181;SDS011;10250;50.756;6.172;2023-06-26T04:51:45;13.10;;;3.20;;
20181;SDS011;10250;50.756;6.172;2023-06-26T04:53:46;13.33;;;3.60;;
20181;SDS011;10250;50.756;6.172;2023-06-26T04:55:46;14.63;;;3.60;;
20181;SDS011;10250;50.756;6.172;2023-06-26T04:57:47;15.73;;;3.50;;
20181;SDS011;10250;50.756;6.172;2023-06-26T04:59:47;14.30;;;3.10;;
20181;SDS011;10250;50.756;6.172;2023-06-26T05:01:48;12.03;;;3.30;;
20181;SDS011;10250;50.756;6.172;2023-06-26T05:03:49;12.70;;;3.53;;
20181;SDS011;10250;50.756;6.172;2023-06-26T05:05:49;13.43;;;3.43;;
20181;SDS011;10250;50.756;6.172;2023-06-26T05:07:52;13.20;;;3.50;;
20181;SDS011;10250;50.756;6.172;2023-06-26T05:09:53;10.57;;;3.17;;
20181;SDS011;10250;50.756;6.172;2023-06-26T05:11:54;13.03;;;3.50;;
20181;SDS011;10250;50.756;6.172;2023-06-26T05:13:54;12.10;;;3.33;;
20181;SDS011;10250;50.756;6.172;2023-06-26T05:15:55;12.03;;;3.30;;
20181;SDS011;10250;50.756;6.172;2023-06-26T05:17:55;14.47;;;3.40;;
20181;SDS011;10250;50.756;6.172;2023-06-26T05:19:56;13.13;;;3.20;;
20181;SDS011;10250;50.756;6.172;2023-06-26T05:21:56;15.93;;;3.37;;
20181;SDS011;10250;50.756;6.172;2023-06-26T05:23:59;14.27;;;3.57;;
20181;SDS011;10250;50.756;6.172;2023-06-26T05:26:02;10.07;;;3.03;;
20181;SDS011;10250;50.756;6.172;2023-06-26T05:28:03;13.87;;;3.70;;
20181;SDS011;10250;50.756;6.172;2023-06-26T05:30:10;12.30;;;3.30;;
20181;SDS011;10250;50.756;6.172;2023-06-26T05:32:11;13.40;;;3.23;;
20181;SDS011;10250;50.756;6.172;2023-06-26T05:34:19;13.33;;;3.60;;
20181;SDS011;10250;50.756;6.172;2023-06-26T05:36:28;13.23;;;3.17;;
20181;SDS011;10250;50.756;6.172;2023-06-26T05:38:31;13.93;;;3.27;;
20181;SDS011;10250;50.756;6.172;2023-06-26T05:40:32;13.50;;;3.47;;
20181;SDS011;10250;50.756;6.172;2023-06-26T05:42:34;20.53;;;4.50;;
20181;SDS011;10250;50.756;6.172;2023-06-26T05:44:35;15.07;;;4.03;;
20181;SDS011;10250;50.756;6.172;2023-06-26T05:46:35;14.13;;;3.60;;
20181;SDS011;10250;50.756;6.172;2023-06-26T05:48:36;13.53;;;4.00;;
20181;SDS011;10250;50.756;6.172;2023-06-26T05:50:37;16.57;;;4.13;;
20181;SDS011;10250;50.756;6.172;2023-06-26T05:52:38;16.47;;;4.30;;
20181;SDS011;10250;50.756;6.172;2023-06-26T05:54:39;14.73;;;3.80;;
20181;SDS011;10250;50.756;6.172;2023-06-26T05:56:39;14.10;;;4.00;;
20181;SDS011;10250;50.756;6.172;2023-06-26T05:58:41;15.57;;;4.47;;
20181;SDS011;10250;50.756;6.172;2023-06-26T06:00:43;15.67;;;4.30;;
20181;SDS011;10250;50.756;6.172;2023-06-26T06:02:45;15.03;;;4.17;;
20181;SDS011;10250;50.756;6.172;2023-06-26T06:04:45;13.57;;;4.20;;
20181;SDS011;10250;50.756;6.172;2023-06-26T06:06:46;18.63;;;4.00;;
20181;SDS011;10250;50.756;6.172;2023-06-26T06:08:47;14.77;;;4.23;;
20181;SDS011;10250;50.756;6.172;2023-06-26T06:10:47;14.97;;;4.20;;
20181;SDS011;10250;50.756;6.172;2023-06-26T06:12:48;16.27;;;4.13;;
20181;SDS011;10250;50.756;6.172;2023-06-26T06:14:48;15.67;;;4.07;;
20181;SDS011;10250;50.756;6.172;2023-06-26T06:16:49;17.00;;;4.57;;
20181;SDS011;10250;50.756;6.172;2023-06-26T06:18:49;17.30;;;4.60;;
20181;SDS011;10250;50.756;6.172;2023-06-26T06:20:50;16.43;;;4.00;;
20181;SDS011;10250;50.756;6.172;2023-06-26T06:22:51;14.50;;;4.37;;
20181;SDS011;10250;50.756;6.172;2023-06-26T06:24:51;13.87;;;4.10;;
20181;SDS011;10250;50.756;6.172;2023-06-26T06:26:52;20.40;;;5.10;;
20181;SDS011;10250;50.756;6.172;2023-06-26T06:28:53;15.57;;;4.13;;
20181;SDS011;10250;50.756;6.172;2023-06-26T06:30:53;13.80;;;3.90;;
20181;SDS011;10250;50.756;6.172;2023-06-26T06:32:54;14.50;;;4.27;;
20181;SDS011;10250;50.756;6.172;2023-06-26T06:34:54;13.03;;;3.83;;
20181;SDS011;10250;50.756;6.172;2023-06-26T06:36:55;16.07;;;4.13;;
20181;SDS011;10250;50.756;6.172;2023-06-26T06:38:55;18.57;;;4.70;;
20181;SDS011;10250;50.756;6.172;2023-06-26T06:40:56;15.67;;;3.67;;
20181;SDS011;10250;50.756;6.172;2023-06-26T06:42:57;15.23;;;3.93;;
20181;SDS011;10250;50.756;6.172;2023-06-26T06:44:57;13.70;;;3.90;;
20181;SDS011;10250;50.756;6.172;2023-06-26T06:46:58;17.03;;;4.37;;
20181;SDS011;10250;50.756;6.172;2023-06-26T06:48:58;13.30;;;4.20;;
20181;SDS011;10250;50.756;6.172;2023-06-26T06:51:00;16.67;;;4.57;;
20181;SDS011;10250;50.756;6.172;2023-06-26T06:53:01;15.53;;;4.03;;
20181;SDS011;10250;50.756;6.172;2023-06-26T06:55:01;14.80;;;3.93;;
20181;SDS011;10250;50.756;6.172;2023-06-26T06:57:07;14.20;;;4.20;;
20181;SDS011;10250;50.756;6.172;2023-06-26T06:59:08;13.97;;;4.00;;
20181;SDS011;10250;50.756;6.172;2023-06-26T07:01:09;13.90;;;3.97;;
20181;SDS011;10250;50.756;6.172;2023-06-26T07:03:10;14.33;;;3.47;;
20181;SDS011;10250;50.756;6.172;2023-06-26T07:05:11;18.20;;;4.00;;
20181;SDS011;10250;50.756;6.172;2023-06-26T07:07:12;16.13;;;3.97;;
20181;SDS011;10250;50.756;6.172;2023-06-26T07:09:16;13.37;;;4.03;;
20181;SDS011;10250;50.756;6.172;2023-06-26T07:11:16;15.60;;;3.63;;
20181;SDS011;10250;50.756;6.172;2023-06-26T07:13:17;17.73;;;3.80;;
20181;SDS011;10250;50.756;6.172;2023-06-26T07:15:17;18.20;;;3.90;;
20181;SDS011;10250;50.756;6.172;2023-06-26T07:17:18;14.73;;;3.70;;
20181;SDS011;10250;50.756;6.172;2023-06-26T07:19:19;14.00;;;3.30;;
20181;SDS011;10250;50.756;6.172;2023-06-26T07:21:19;10.90;;;3.07;;
20181;SDS011;10250;50.756;6.172;2023-06-26T07:23:20;13.47;;;3.37;;
20181;SDS011;10250;50.756;6.172;2023-06-26T07:25:20;17.80;;;4.00;;
20181;SDS011;10250;50.756;6.172;2023-06-26T07:27:21;13.13;;;2.90;;
20181;SDS011;10250;50.756;6.172;2023-06-26T07:29:22;12.63;;;3.20;;
20181;SDS011;10250;50.756;6.172;2023-06-26T07:31:23;11.83;;;3.30;;
20181;SDS011;10250;50.756;6.172;2023-06-26T07:33:23;16.10;;;3.10;;
20181;SDS011;10250;50.756;6.172;2023-06-26T07:35:24;13.47;;;3.33;;
20181;SDS011;10250;50.756;6.172;2023-06-26T07:37:27;17.63;;;3.70;;
20181;SDS011;10250;50.756;6.172;2023-06-26T07:39:28;14.80;;;3.53;;
20181;SDS011;10250;50.756;6.172;2023-06-26T07:41:28;10.17;;;3.10;;
20181;SDS011;10250;50.756;6.172;2023-06-26T07:43:31;14.53;;;3.33;;
20181;SDS011;10250;50.756;6.172;2023-06-26T07:45:31;14.20;;;3.50;;
20181;SDS011;10250;50.756;6.172;2023-06-26T07:47:32;17.77;;;3.53;;
20181;SDS011;10250;50.756;6.172;2023-06-26T07:49:33;13.73;;;3.60;;
20181;SDS011;10250;50.756;6.172;2023-06-26T07:51:33;13.43;;;3.87;;
20181;SDS011;10250;50.756;6.172;2023-06-26T07:53:34;15.00;;;3.37;;
20181;SDS011;10250;50.756;6.172;2023-06-26T07:55:35;16.47;;;3.20;;
20181;SDS011;10250;50.756;6.172;2023-06-26T07:57:35;14.30;;;3.30;;
20181;SDS011;10250;50.756;6.172;2023-06-26T07:59:36;13.93;;;3.33;;
20181;SDS011;10250;50.756;6.172;2023-06-26T08:01:36;12.23;;;3.00;;
20181;SDS011;10250;50.756;6.172;2023-06-26T08:03:37;12.83;;;3.37;;
20181;SDS011;10250;50.756;6.172;2023-06-26T08:05:37;16.10;;;3.50;;
20181;SDS011;10250;50.756;6.172;2023-06-26T08:07:38;15.63;;;3.27;;
20181;SDS011;10250;50.756;6.172;2023-06-26T08:09:39;11.83;;;2.97;;
20181;SDS011;10250;50.756;6.172;2023-06-26T08:11:39;10.80;;;3.00;;
20181;SDS011;10250;50.756;6.172;2023-06-26T08:13:40;14.63;;;3.33;;
20181;SDS011;10250;50.756;6.172;2023-06-26T08:15:41;14.17;;;2.93;;
20181;SDS011;10250;50.756;6.172;2023-06-26T08:17:41;13.80;;;3.37;;
20181;SDS011;10250;50.756;6.172;2023-06-26T08:19:42;11.13;;;3.03;;
20181;SDS011;10250;50.756;6.172;2023-06-26T08:21:43;17.10;;;3.40;;
20181;SDS011;10250;50.756;6.172;2023-06-26T08:23:45;13.57;;;3.00;;
20181;SDS011;10250;50.756;6.172;2023-06-26T08:25:45;14.77;;;2.90;;
20181;SDS011;10250;50.756;6.172;2023-06-26T08:27:47;11.67;;;2.93;;
20181;SDS011;10250;50.756;6.172;2023-06-26T08:29:48;13.33;;;2.70;;
20181;SDS011;10250;50.756;6.172;2023-06-26T08:31:48;12.37;;;2.77;;
20181;SDS011;10250;50.756;6.172;2023-06-26T08:33:49;13.67;;;3.17;;
20181;SDS011;10250;50.756;6.172;2023-06-26T08:35:50;14.97;;;2.77;;
20181;SDS011;10250;50.756;6.172;2023-06-26T08:37:50;13.47;;;2.87;;
20181;SDS011;10250;50.756;6.172;2023-06-26T08:39:51;13.50;;;3.00;;
20181;SDS011;10250;50.756;6.172;2023-06-26T08:41:52;12.77;;;2.57;;
20181;SDS011;10250;50.756;6.172;2023-06-26T08:43:53;13.90;;;2.67;;
20181;SDS011;10250;50.756;6.172;2023-06-26T08:45:54;11.47;;;2.40;;
20181;SDS011;10250;50.756;6.172;2023-06-26T08:47:54;12.17;;;2.33;;
20181;SDS011;10250;50.756;6.172;2023-06-26T08:50:04;13.00;;;2.60;;
20181;SDS011;10250;50.756;6.172;2023-06-26T08:52:17;12.57;;;2.47;;
20181;SDS011;10250;50.756;6.172;2023-06-26T08:54:25;10.77;;;2.57;;
20181;SDS011;10250;50.756;6.172;2023-06-26T08:56:37;8.83;;;2.27;;
20181;SDS011;10250;50.756;6.172;2023-06-26T08:58:41;13.97;;;2.73;;
20181;SDS011;10250;50.756;6.172;2023-06-26T09:00:42;12.30;;;2.57;;
20181;SDS011;10250;50.756;6.172;2023-06-26T09:02:43;13.60;;;2.50;;
20181;SDS011;10250;50.756;6.172;2023-06-26T09:04:45;13.23;;;2.53;;
20181;SDS011;10250;50.756;6.172;2023-06-26T09:06:45;13.03;;;2.80;;
20181;SDS011;10250;50.756;6.172;2023-06-26T09:08:46;11.07;;;2.37;;
20181;SDS011;10250;50.756;6.172;2023-06-26T09:10:46;7.83;;;2.03;;
20181;SDS011;10250;50.756;6.172;2023-06-26T09:12:47;9.50;;;2.10;;
20181;SDS011;10250;50.756;6.172;2023-06-26T09:14:48;10.13;;;2.47;;
20181;SDS011;10250;50.756;6.172;2023-06-26T09:16:50;9.63;;;2.20;;
20181;SDS011;10250;50.756;6.172;2023-06-26T09:18:50;12.00;;;2.53;;
20181;SDS011;10250;50.756;6.172;2023-06-26T09:20:52;15.50;;;2.37;;
20181;SDS011;10250;50.756;6.172;2023-06-26T09:22:54;13.47;;;2.30;;
20181;SDS011;10250;50.756;6.172;2023-06-26T09:24:55;10.13;;;2.33;;
20181;SDS011;10250;50.756;6.172;2023-06-26T09:26:56;10.07;;;2.30;;
20181;SDS011;10250;50.756;6.172;2023-06-26T09:28:57;10.63;;;2.20;;
20181;SDS011;10250;50.756;6.172;2023-06-26T09:31:02;8.23;;;2.10;;
20181;SDS011;10250;50.756;6.172;2023-06-26T09:33:15;12.13;;;2.60;;
20181;SDS011;10250;50.756;6.172;2023-06-26T09:35:17;8.70;;;2.17;;
20181;SDS011;10250;50.756;6.172;2023-06-26T09:37:25;11.43;;;2.47;;
20181;SDS011;10250;50.756;6.172;2023-06-26T09:39:26;10.00;;;2.27;;
20181;SDS011;10250;50.756;6.172;2023-06-26T09:41:27;10.57;;;2.20;;
20181;SDS011;10250;50.756;6.172;2023-06-26T09:43:28;12.77;;;2.60;;
20181;SDS011;10250;50.756;6.172;2023-06-26T09:45:32;10.37;;;2.23;;
20181;SDS011;10250;50.756;6.172;2023-06-26T09:47:33;12.13;;;2.43;;
20181;SDS011;10250;50.756;6.172;2023-06-26T09:49:34;15.53;;;2.30;;
20181;SDS011;10250;50.756;6.172;2023-06-26T09:51:35;11.27;;;2.23;;
20181;SDS011;10250;50.756;6.172;2023-06-26T09:53:37;10.93;;;2.53;;
20181;SDS011;10250;50.756;6.172;2023-06-26T09:55:38;14.27;;;2.27;;
20181;SDS011;10250;50.756;6.172;2023-06-26T09:57:40;13.07;;;2.50;;
20181;SDS011;10250;50.756;6.172;2023-06-26T09:59:41;11.43;;;2.33;;
20181;SDS011;10250;50.756;6.172;2023-06-26T10:01:45;13.17;;;3.10;;
20181;SDS011;10250;50.756;6.172;2023-06-26T10:03:46;11.97;;;2.50;;
20181;SDS011;10250;50.756;6.172;2023-06-26T10:05:47;9.57;;;2.30;;
20181;SDS011;10250;50.756;6.172;2023-06-26T10:07:49;10.93;;;2.40;;
20181;SDS011;10250;50.756;6.172;2023-06-26T10:09:51;13.17;;;2.30;;
20181;SDS011;10250;50.756;6.172;2023-06-26T10:11:57;10.40;;;2.00;;
20181;SDS011;10250;50.756;6.172;2023-06-26T10:14:01;12.97;;;2.50;;
20181;SDS011;10250;50.756;6.172;2023-06-26T10:16:05;9.50;;;1.90;;
20181;SDS011;10250;50.756;6.172;2023-06-26T10:18:08;9.43;;;1.97;;
20181;SDS011;10250;50.756;6.172;2023-06-26T10:20:10;11.57;;;2.20;;
20181;SDS011;10250;50.756;6.172;2023-06-26T10:22:15;10.90;;;2.10;;
20181;SDS011;10250;50.756;6.172;2023-06-26T10:24:17;11.43;;;2.30;;
20181;SDS011;10250;50.756;6.172;2023-06-26T10:26:19;13.33;;;2.43;;
20181;SDS011;10250;50.756;6.172;2023-06-26T10:28:21;11.10;;;2.10;;
20181;SDS011;10250;50.756;6.172;2023-06-26T10:30:25;11.97;;;2.10;;
20181;SDS011;10250;50.756;6.172;2023-06-26T10:32:29;8.33;;;2.10;;
20181;SDS011;10250;50.756;6.172;2023-06-26T10:34:30;10.03;;;2.20;;
20181;SDS011;10250;50.756;6.172;2023-06-26T10:36:31;11.67;;;2.20;;
20181;SDS011;10250;50.756;6.172;2023-06-26T10:38:48;9.73;;;2.20;;
20181;SDS011;10250;50.756;6.172;2023-06-26T10:40:53;11.67;;;1.97;;
20181;SDS011;10250;50.756;6.172;2023-06-26T10:43:06;11.57;;;2.03;;
20181;SDS011;10250;50.756;6.172;2023-06-26T10:45:19;11.07;;;2.00;;
20181;SDS011;10250;50.756;6.172;2023-06-26T10:49:31;8.27;;;2.23;;
20181;SDS011;10250;50.756;6.172;2023-06-26T10:51:32;7.93;;;2.03;;
20181;SDS011;10250;50.756;6.172;2023-06-26T10:53:32;14.03;;;2.43;;
20181;SDS011;10250;50.756;6.172;2023-06-26T10:55:36;9.80;;;2.00;;
20181;SDS011;10250;50.756;6.172;2023-06-26T10:57:37;7.83;;;1.73;;
20181;SDS011;10250;50.756;6.172;2023-06-26T10:59:39;13.07;;;2.20;;
20181;SDS011;10250;50.756;6.172;2023-06-26T11:01:41;8.47;;;1.70;;
20181;SDS011;10250;50.756;6.172;2023-06-26T11:03:46;11.33;;;1.97;;
20181;SDS011;10250;50.756;6.172;2023-06-26T11:08:09;10.20;;;2.10;;
20181;SDS011;10250;50.756;6.172;2023-06-26T11:10:11;9.27;;;2.10;;
20181;SDS011;10250;50.756;6.172;2023-06-26T11:12:12;8.17;;;1.90;;
20181;SDS011;10250;50.756;6.172;2023-06-26T11:14:13;12.20;;;1.83;;
20181;SDS011;10250;50.756;6.172;2023-06-26T11:16:15;11.17;;;2.13;;
20181;SDS011;10250;50.756;6.172;2023-06-26T11:18:16;9.67;;;1.83;;
20181;SDS011;10250;50.756;6.172;2023-06-26T11:20:17;6.53;;;1.73;;
20181;SDS011;10250;50.756;6.172;2023-06-26T11:22:17;9.27;;;1.73;;
20181;SDS011;10250;50.756;6.172;2023-06-26T11:24:19;8.60;;;2.00;;
20181;SDS011;10250;50.756;6.172;2023-06-26T11:26:20;7.57;;;2.00;;
20181;SDS011;10250;50.756;6.172;2023-06-26T11:28:21;8.20;;;1.90;;
20181;SDS011;10250;50.756;6.172;2023-06-26T11:30:22;7.67;;;1.80;;
20181;SDS011;10250;50.756;6.172;2023-06-26T11:32:25;7.80;;;2.17;;
20181;SDS011;10250;50.756;6.172;2023-06-26T11:34:29;11.50;;;2.10;;
20181;SDS011;10250;50.756;6.172;2023-06-26T11:36:30;7.67;;;1.77;;
20181;SDS011;10250;50.756;6.172;2023-06-26T11:38:36;7.17;;;1.80;;
20181;SDS011;10250;50.756;6.172;2023-06-26T11:40:38;8.10;;;2.00;;
20181;SDS011;10250;50.756;6.172;2023-06-26T11:42:38;8.50;;;1.70;;
20181;SDS011;10250;50.756;6.172;2023-06-26T11:44:40;8.13;;;1.90;;
20181;SDS011;10250;50.756;6.172;2023-06-26T11:46:42;7.33;;;1.70;;
20181;SDS011;10250;50.756;6.172;2023-06-26T11:48:43;6.50;;;1.90;;
20181;SDS011;10250;50.756;6.172;2023-06-26T11:52:52;6.03;;;1.50;;
20181;SDS011;10250;50.756;6.172;2023-06-26T11:54:57;11.23;;;1.77;;
20181;SDS011;10250;50.756;6.172;2023-06-26T11:56:58;8.33;;;1.80;;
20181;SDS011;10250;50.756;6.172;2023-06-26T12:01:06;8.20;;;1.70;;
20181;SDS011;10250;50.756;6.172;2023-06-26T12:03:07;5.30;;;1.50;;
20181;SDS011;10250;50.756;6.172;2023-06-26T12:05:07;6.03;;;1.70;;
20181;SDS011;10250;50.756;6.172;2023-06-26T12:07:09;6.70;;;1.50;;
20181;SDS011;10250;50.756;6.172;2023-06-26T12:09:10;7.77;;;1.60;;
20181;SDS011;10250;50.756;6.172;2023-06-26T12:11:12;8.77;;;1.60;;
20181;SDS011;10250;50.756;6.172;2023-06-26T12:13:13;6.13;;;1.60;;
20181;SDS011;10250;50.756;6.172;2023-06-26T12:15:14;6.80;;;1.50;;
20181;SDS011;10250;50.756;6.172;2023-06-26T12:17:16;8.37;;;1.70;;